Time;durP1;ratioP1;P1;durP2;ratioP2;P2;SDS_P1;SDS_P2;PMS_P1;PMS_P2;Temp;Humidity;BMP_temperature;BMP_pressure;BME280_temperature;BME280_humidity;BME280_pressure;Samples;Min_cycle;Max_cycle;Signal;HPM_P1;HPM_P2
2022/06/02 00:01:11;;;;;;;9.48;7.32;;;;;;;;;;6198109;23;20123;-66
2022/06/02 00:03:49;;;;;;;10.60;7.82;;;;;;;;;;6213332;23;20021;-66
2022/06/02 00:06:34;;;;;;;8.68;7.60;;;;;;;;;;6213967;23;20075;-64
2022/06/02 00:09:03;;;;;;;10.05;6.97;;;;;;;;;;6214191;23;20481;-65
2022/06/02 00:11:39;;;;;;;10.32;7.05;;;;;;;;;;6214319;23;20021;-65
2022/06/02 00:14:10;;;;;;;8.07;6.78;;;;;;;;;;6202141;23;20076;-65
2022/06/02 00:16:56;;;;;;;8.75;7.28;;;;;;;;;;6212989;23;20043;-65
2022/06/02 00:19:39;;;;;;;10.80;7.05;;;;;;;;;;6159535;23;20096;-66
2022/06/02 00:22:05;;;;;;;10.63;7.30;;;;;;;;;;6214968;23;20021;-66
2022/06/02 00:24:45;;;;;;;8.95;6.78;;;;;;;;;;6207627;23;20411;-65
2022/06/02 00:27:26;;;;;;;10.60;6.97;;;;;;;;;;6205584;23;20095;-65
2022/06/02 00:30:13;;;;;;;10.77;7.20;;;;;;;;;;6205063;23;20020;-65
2022/06/02 00:32:47;;;;;;;9.38;7.22;;;;;;;;;;6213631;23;20092;-65
2022/06/02 00:35:13;;;;;;;10.65;8.18;;;;;;;;;;6206035;23;20028;-66
2022/06/02 00:37:44;;;;;;;10.68;7.90;;;;;;;;;;6214025;23;20104;-65
2022/06/02 00:40:11;;;;;;;11.80;8.63;;;;;;;;;;6200454;22;20420;-65
2022/06/02 00:42:53;;;;;;;8.70;7.47;;;;;;;;;;6208404;23;20103;-65
2022/06/02 00:45:20;;;;;;;10.77;8.65;;;;;;;;;;6214025;23;20100;-66
2022/06/02 00:47:49;;;;;;;11.45;8.77;;;;;;;;;;6207114;22;20131;-65
2022/06/02 00:50:34;;;;;;;11.30;8.77;;;;;;;;;;6214302;23;20100;-65
2022/06/02 00:53:14;;;;;;;11.20;8.05;;;;;;;;;;6204525;23;20167;-65
2022/06/02 00:58:57;;;;;;;12.05;9.18;;;;;;;;;;6207068;23;20417;-65
2022/06/02 01:01:26;;;;;;;11.32;8.90;;;;;;;;;;6213470;23;20365;-64
2022/06/02 01:03:54;;;;;;;12.68;9.10;;;;;;;;;;6199596;23;20024;-65
2022/06/02 01:06:23;;;;;;;14.55;9.52;;;;;;;;;;6206425;23;20021;-65
2022/06/02 01:09:08;;;;;;;11.95;8.70;;;;;;;;;;6204496;23;20108;-65
2022/06/02 01:11:46;;;;;;;11.70;8.98;;;;;;;;;;6213510;23;20056;-65
2022/06/02 01:14:12;;;;;;;;;;;;;;;;;;6204615;23;20656;-64
2022/06/02 01:16:48;;;;;;;13.10;8.85;;;;;;;;;;6212313;23;19955;-65
2022/06/02 01:19:23;;;;;;;12.35;9.63;;;;;;;;;;6198621;22;20353;-64
2022/06/02 01:21:56;;;;;;;11.77;8.95;;;;;;;;;;6208026;23;20095;-65
2022/06/02 01:24:36;;;;;;;10.63;9.30;;;;;;;;;;6204553;23;20104;-65
2022/06/02 01:27:13;;;;;;;12.00;9.32;;;;;;;;;;6212665;23;20048;-65
2022/06/02 01:29:58;;;;;;;13.57;9.57;;;;;;;;;;6212088;23;20382;-65
2022/06/02 01:32:32;;;;;;;10.88;8.88;;;;;;;;;;6210457;23;20395;-66
2022/06/02 01:35:21;;;;;;;11.15;9.20;;;;;;;;;;6212888;23;20108;-65
2022/06/02 01:37:52;;;;;;;12.05;9.38;;;;;;;;;;6211241;23;20028;-65
2022/06/02 01:40:27;;;;;;;14.88;10.32;;;;;;;;;;6212442;23;20493;-65
2022/06/02 01:43:02;;;;;;;12.82;9.95;;;;;;;;;;6198801;23;20112;-65
2022/06/02 01:45:37;;;;;;;15.52;10.43;;;;;;;;;;6206237;23;20056;-65
2022/06/02 01:48:10;;;;;;;15.18;10.48;;;;;;;;;;6204595;23;20111;-65
2022/06/02 01:50:49;;;;;;;11.75;9.73;;;;;;;;;;6212782;23;20104;-65
2022/06/02 01:53:21;;;;;;;12.43;9.75;;;;;;;;;;6178003;23;20021;-65
2022/06/02 01:56:07;;;;;;;11.25;9.25;;;;;;;;;;6209805;23;20034;-65
2022/06/02 01:58:36;;;;;;;14.70;9.95;;;;;;;;;;6199243;23;20103;-64
2022/06/02 02:01:11;;;;;;;13.13;10.50;;;;;;;;;;6212267;23;20103;-65
2022/06/02 02:03:44;;;;;;;14.38;9.93;;;;;;;;;;6203950;23;20104;-64
2022/06/02 02:06:10;;;;;;;12.90;10.52;;;;;;;;;;6212059;23;20099;-65
2022/06/02 02:08:51;;;;;;;12.25;9.65;;;;;;;;;;6212451;23;20108;-65
2022/06/02 02:11:34;;;;;;;12.05;9.90;;;;;;;;;;6201753;23;20100;-65
2022/06/02 02:14:10;;;;;;;12.60;10.07;;;;;;;;;;6211179;23;20064;-65
2022/06/02 02:16:39;;;;;;;11.95;9.70;;;;;;;;;;6204401;23;20350;-65
2022/06/02 02:19:12;;;;;;;12.65;10.57;;;;;;;;;;6212295;23;20017;-65
2022/06/02 02:21:57;;;;;;;12.32;9.57;;;;;;;;;;6204519;23;20020;-65
2022/06/02 02:24:33;;;;;;;12.73;10.45;;;;;;;;;;6205780;23;20059;-65
2022/06/02 02:27:00;;;;;;;15.55;10.27;;;;;;;;;;6198474;23;20059;-65
2022/06/02 02:29:44;;;;;;;13.55;10.13;;;;;;;;;;6210864;23;20132;-64
2022/06/02 02:32:29;;;;;;;12.75;10.10;;;;;;;;;;6203556;23;20111;-65
2022/06/02 02:35:02;;;;;;;13.52;10.45;;;;;;;;;;6211732;23;20051;-65
2022/06/02 02:37:37;;;;;;;12.55;9.80;;;;;;;;;;6198713;23;20521;-65
2022/06/02 02:40:14;;;;;;;13.32;9.20;;;;;;;;;;6206418;23;20104;-65
2022/06/02 02:42:48;;;;;;;12.43;9.82;;;;;;;;;;6203129;23;20027;-65
2022/06/02 02:45:26;;;;;;;12.23;9.90;;;;;;;;;;6211563;23;20031;-64
2022/06/02 02:48:00;;;;;;;13.98;9.32;;;;;;;;;;6208715;23;20092;-65
2022/06/02 02:50:26;;;;;;;11.40;9.55;;;;;;;;;;6210769;23;20103;-64
2022/06/02 02:52:57;;;;;;;13.77;10.52;;;;;;;;;;6205552;23;20424;-65
2022/06/02 02:55:46;;;;;;;12.77;9.50;;;;;;;;;;6198635;23;20016;-65
2022/06/02 02:58:19;;;;;;;12.50;9.95;;;;;;;;;;6211505;23;20623;-65
2022/06/02 03:01:05;;;;;;;14.05;10.38;;;;;;;;;;6204280;23;20112;-66
2022/06/02 03:03:31;;;;;;;12.40;9.73;;;;;;;;;;6211916;23;20052;-64
2022/06/02 03:05:59;;;;;;;14.20;10.02;;;;;;;;;;6197466;23;20386;-64
2022/06/02 03:08:38;;;;;;;12.88;9.85;;;;;;;;;;6207795;23;20020;-66
2022/06/02 03:11:04;;;;;;;;;;;;;;;;;;6205461;22;20100;-65
2022/06/02 03:13:38;;;;;;;12.75;9.95;;;;;;;;;;6211360;23;19951;-66
2022/06/02 03:16:06;;;;;;;12.43;9.55;;;;;;;;;;6203387;23;20048;-64
2022/06/02 03:18:33;;;;;;;14.05;9.98;;;;;;;;;;6180045;23;20020;-65
2022/06/02 03:21:14;;;;;;;18.00;10.77;;;;;;;;;;6205980;23;20016;-65
2022/06/02 03:23:55;;;;;;;17.85;10.75;;;;;;;;;;6204873;23;20016;-65
2022/06/02 03:26:22;;;;;;;15.85;10.73;;;;;;;;;;6211362;23;20108;-65
2022/06/02 03:28:48;;;;;;;13.30;11.00;;;;;;;;;;6203563;23;20021;-64
2022/06/02 03:31:19;;;;;;;15.73;11.40;;;;;;;;;;6211089;23;20020;-65
2022/06/02 03:34:04;;;;;;;14.27;10.77;;;;;;;;;;6195602;23;20021;-65
2022/06/02 03:36:49;;;;;;;12.25;9.27;;;;;;;;;;6207480;23;20104;-65
2022/06/02 03:39:16;;;;;;;12.98;9.98;;;;;;;;;;6201707;23;20099;-66
2022/06/02 03:41:42;;;;;;;13.93;9.75;;;;;;;;;;6211571;23;20021;-66
2022/06/02 03:44:30;;;;;;;12.95;10.18;;;;;;;;;;6203814;23;20100;-65
2022/06/02 03:47:12;;;;;;;12.80;9.95;;;;;;;;;;6205609;23;20103;-65
2022/06/02 03:49:49;;;;;;;12.88;9.98;;;;;;;;;;6196968;23;20024;-64
2022/06/02 03:52:40;;;;;;;12.00;9.35;;;;;;;;;;6211241;23;20104;-65
2022/06/02 03:55:25;;;;;;;12.23;9.48;;;;;;;;;;6202790;23;20108;-64
2022/06/02 03:58:10;;;;;;;12.52;9.18;;;;;;;;;;6211441;23;20349;-64
2022/06/02 04:00:43;;;;;;;15.38;9.32;;;;;;;;;;6197747;23;20453;-65
2022/06/02 04:03:13;;;;;;;12.23;9.88;;;;;;;;;;6205298;23;20052;-65
2022/06/02 04:05:43;;;;;;;14.75;9.98;;;;;;;;;;6210638;23;20028;-65
2022/06/02 04:08:15;;;;;;;12.57;10.07;;;;;;;;;;6203293;23;20040;-65
2022/06/02 04:11:04;;;;;;;14.48;10.77;;;;;;;;;;6211356;23;20480;-65
2022/06/02 04:13:37;;;;;;;13.45;9.98;;;;;;;;;;6147444;23;20441;-65
2022/06/02 04:16:19;;;;;;;14.55;10.77;;;;;;;;;;6203393;23;20374;-65
2022/06/02 04:18:45;;;;;;;15.13;10.95;;;;;;;;;;6202133;23;20067;-65
2022/06/02 04:21:17;;;;;;;15.15;12.13;;;;;;;;;;6211225;23;20017;-65
2022/06/02 04:23:44;;;;;;;14.77;11.10;;;;;;;;;;6202406;23;20048;-65
2022/06/02 04:26:10;;;;;;;14.98;11.43;;;;;;;;;;6211054;23;20111;-66
2022/06/02 04:28:49;;;;;;;16.00;11.88;;;;;;;;;;6196944;23;20112;-64
2022/06/02 04:31:22;;;;;;;15.77;12.00;;;;;;;;;;6204849;23;20354;-65
2022/06/02 04:34:08;;;;;;;19.42;13.73;;;;;;;;;;6207749;23;20449;-65
2022/06/02 04:36:37;;;;;;;16.60;12.43;;;;;;;;;;6210772;23;20115;-65
2022/06/02 04:39:10;;;;;;;14.88;11.55;;;;;;;;;;6213918;23;20024;-64
2022/06/02 04:41:42;;;;;;;17.33;12.05;;;;;;;;;;6204817;23;20371;-66
2022/06/02 04:44:27;;;;;;;15.98;11.95;;;;;;;;;;6204272;23;20312;-66
2022/06/02 04:46:59;;;;;;;16.90;13.60;;;;;;;;;;6178841;23;20566;-65
2022/06/02 04:49:40;;;;;;;17.08;13.48;;;;;;;;;;6212815;23;20083;-65
2022/06/02 04:52:25;;;;;;;20.65;14.68;;;;;;;;;;6204489;23;20021;-64
2022/06/02 04:54:57;;;;;;;17.35;13.38;;;;;;;;;;6212703;23;20036;-65
2022/06/02 04:57:35;;;;;;;16.10;12.70;;;;;;;;;;6199539;23;20505;-65
2022/06/02 05:00:07;;;;;;;18.65;14.77;;;;;;;;;;6208690;23;20100;-65
2022/06/02 05:02:40;;;;;;;17.67;13.88;;;;;;;;;;6205922;23;20100;-65
2022/06/02 05:05:06;;;;;;;20.13;13.80;;;;;;;;;;6212825;23;20521;-65
2022/06/02 05:07:59;;;;;;;20.27;15.75;;;;;;;;;;6205364;23;20016;-65
2022/06/02 05:10:29;;;;;;;20.60;14.57;;;;;;;;;;6206641;23;20025;-64
2022/06/02 05:13:08;;;;;;;20.65;15.48;;;;;;;;;;6200343;23;20096;-64
2022/06/02 05:15:34;;;;;;;17.85;14.30;;;;;;;;;;6213311;23;20334;-66
2022/06/02 05:18:20;;;;;;;18.45;14.65;;;;;;;;;;6212996;23;20024;-66
2022/06/02 05:20:47;;;;;;;22.13;15.65;;;;;;;;;;6211911;23;20095;-64
2022/06/02 05:23:27;;;;;;;23.90;16.45;;;;;;;;;;6211501;23;20473;-64
2022/06/02 05:25:53;;;;;;;;;;;;;;;;;;6196708;23;20016;-64
2022/06/02 05:28:20;;;;;;;20.60;16.42;;;;;;;;;;6211400;23;20028;-65
2022/06/02 05:30:55;;;;;;;19.98;16.52;;;;;;;;;;6204288;23;20060;-65
2022/06/02 05:33:27;;;;;;;21.15;15.90;;;;;;;;;;6212514;23;20099;-65
2022/06/02 05:35:53;;;;;;;21.63;15.95;;;;;;;;;;6204773;23;20104;-65
2022/06/02 05:38:38;;;;;;;22.33;16.95;;;;;;;;;;6206511;23;20472;-65
2022/06/02 05:41:16;;;;;;;23.30;16.63;;;;;;;;;;6199328;23;20107;-65
2022/06/02 05:44:01;;;;;;;24.53;17.97;;;;;;;;;;6212913;23;20020;-65
2022/06/02 05:46:34;;;;;;;24.30;16.73;;;;;;;;;;6205128;22;20063;-65
2022/06/02 05:49:00;;;;;;;24.35;18.10;;;;;;;;;;6212636;23;20024;-65
2022/06/02 05:51:30;;;;;;;25.58;18.17;;;;;;;;;;6203102;23;20095;-65
2022/06/02 05:54:02;;;;;;;21.45;16.17;;;;;;;;;;6205366;23;20027;-65
2022/06/02 05:56:29;;;;;;;21.50;17.17;;;;;;;;;;6212087;23;20060;-65
2022/06/02 05:58:58;;;;;;;20.90;17.00;;;;;;;;;;6205315;22;20108;-65
2022/06/02 06:01:42;;;;;;;22.42;16.50;;;;;;;;;;6211959;23;20091;-65
2022/06/02 06:04:28;;;;;;;21.88;16.50;;;;;;;;;;6203987;23;20048;-66
2022/06/02 06:07:15;;;;;;;22.60;17.08;;;;;;;;;;6202613;23;20116;-65
2022/06/02 06:09:56;;;;;;;21.30;15.80;;;;;;;;;;6205096;23;20067;-65
2022/06/02 06:12:32;;;;;;;24.40;17.13;;;;;;;;;;6213328;23;20476;-65
2022/06/02 06:15:04;;;;;;;21.15;17.00;;;;;;;;;;6207845;23;20108;-66
2022/06/02 06:17:48;;;;;;;22.52;17.17;;;;;;;;;;6213778;23;20025;-66
2022/06/02 06:20:14;;;;;;;22.88;17.38;;;;;;;;;;6197273;23;20091;-65
2022/06/02 06:22:41;;;;;;;20.83;16.60;;;;;;;;;;6211349;23;20131;-65
2022/06/02 06:25:27;;;;;;;20.15;16.20;;;;;;;;;;6206814;23;20063;-65
2022/06/02 06:27:57;;;;;;;21.02;16.38;;;;;;;;;;6213643;23;20104;-66
2022/06/02 06:30:42;;;;;;;21.35;14.80;;;;;;;;;;6207271;23;20020;-64
2022/06/02 06:33:13;;;;;;;20.70;16.52;;;;;;;;;;6207393;23;20099;-65
2022/06/02 06:35:58;;;;;;;21.38;15.50;;;;;;;;;;6207396;23;20020;-65
2022/06/02 06:38:35;;;;;;;20.98;14.63;;;;;;;;;;6211473;23;20346;-65
2022/06/02 06:41:13;;;;;;;19.15;14.05;;;;;;;;;;6213641;23;20028;-65
2022/06/02 06:43:45;;;;;;;18.38;12.05;;;;;;;;;;6205205;23;20052;-65
2022/06/02 06:46:25;;;;;;;15.80;11.40;;;;;;;;;;6209324;23;20314;-65
2022/06/02 06:49:10;;;;;;;19.23;11.52;;;;;;;;;;6198691;23;20354;-65
2022/06/02 06:51:48;;;;;;;13.70;10.75;;;;;;;;;;6211984;23;20091;-65
2022/06/02 06:54:20;;;;;;;13.02;10.23;;;;;;;;;;6204982;23;20020;-66
2022/06/02 06:57:02;;;;;;;10.20;7.15;;;;;;;;;;6211971;23;20067;-65
2022/06/02 06:59:34;;;;;;;11.18;8.93;;;;;;;;;;6203933;23;20119;-65
2022/06/02 07:02:05;;;;;;;10.45;7.25;;;;;;;;;;6205142;23;20099;-66
2022/06/02 07:04:49;;;;;;;12.82;8.82;;;;;;;;;;6202484;23;20021;-65
2022/06/02 07:07:20;;;;;;;9.82;7.47;;;;;;;;;;6212040;23;20099;-65
2022/06/02 07:09:57;;;;;;;10.98;8.00;;;;;;;;;;6205419;23;20398;-65
2022/06/02 07:12:50;;;;;;;11.48;7.78;;;;;;;;;;6212318;23;20027;-66
2022/06/02 07:15:20;;;;;;;11.23;7.20;;;;;;;;;;6198777;23;20177;-65
2022/06/02 07:17:57;;;;;;;7.70;5.47;;;;;;;;;;6210538;23;20095;-66
2022/06/02 07:20:38;;;;;;;6.60;5.03;;;;;;;;;;6205259;23;20437;-65
2022/06/02 07:23:09;;;;;;;7.60;5.95;;;;;;;;;;6212342;23;20095;-65
2022/06/02 07:25:51;;;;;;;9.98;6.53;;;;;;;;;;6212460;23;20016;-65
2022/06/02 07:28:20;;;;;;;9.50;5.68;;;;;;;;;;6201086;23;20071;-65
2022/06/02 07:30:51;;;;;;;8.77;5.78;;;;;;;;;;6209000;23;20055;-65
2022/06/02 07:33:40;;;;;;;8.68;6.03;;;;;;;;;;6204154;23;20127;-65
2022/06/02 07:36:25;;;;;;;9.38;5.90;;;;;;;;;;6169476;23;20092;-65
2022/06/02 07:39:10;;;;;;;9.13;5.88;;;;;;;;;;6204589;23;20432;-65
2022/06/02 07:41:38;;;;;;;10.70;6.38;;;;;;;;;;6203357;23;20027;-65
2022/06/02 07:44:15;;;;;;;8.70;5.63;;;;;;;;;;6201532;23;20075;-64
2022/06/02 07:46:51;;;;;;;8.93;6.50;;;;;;;;;;6212384;23;20070;-66
2022/06/02 07:49:36;;;;;;;9.27;6.35;;;;;;;;;;6204069;23;20350;-66
2022/06/02 07:52:03;;;;;;;9.50;6.38;;;;;;;;;;6212404;23;20399;-66
2022/06/02 07:54:35;;;;;;;7.13;4.00;;;;;;;;;;6198267;22;20043;-66
2022/06/02 07:57:05;;;;;;;12.82;5.85;;;;;;;;;;6206223;23;20111;-66
2022/06/02 07:59:51;;;;;;;6.10;4.53;;;;;;;;;;6204858;23;20040;-66
2022/06/02 08:02:23;;;;;;;9.25;5.50;;;;;;;;;;6190850;23;20088;-65
2022/06/02 08:04:59;;;;;;;9.07;5.00;;;;;;;;;;6212321;23;20016;-65
2022/06/02 08:07:38;;;;;;;6.63;4.72;;;;;;;;;;6206008;23;20024;-65
2022/06/02 08:10:08;;;;;;;7.03;5.88;;;;;;;;;;6203661;23;20024;-65
2022/06/02 08:12:40;;;;;;;8.48;5.60;;;;;;;;;;6205364;23;20370;-65
2022/06/02 08:15:25;;;;;;;8.95;5.75;;;;;;;;;;6213946;23;20020;-66
2022/06/02 08:18:01;;;;;;;6.68;4.43;;;;;;;;;;6205451;23;20478;-66
2022/06/02 08:20:33;;;;;;;6.13;4.00;;;;;;;;;;6213949;23;20405;-65
2022/06/02 08:23:03;;;;;;;5.85;3.70;;;;;;;;;;6201207;22;20099;-65
2022/06/02 08:25:37;;;;;;;5.45;3.72;;;;;;;;;;6207747;23;20023;-66
2022/06/02 08:28:03;;;;;;;6.95;4.30;;;;;;;;;;6179373;23;20047;-65
2022/06/02 08:30:35;;;;;;;5.47;3.33;;;;;;;;;;6212869;23;20017;-66
2022/06/02 08:33:08;;;;;;;8.05;4.05;;;;;;;;;;6207363;23;20108;-65
2022/06/02 08:35:37;;;;;;;4.50;3.20;;;;;;;;;;6210561;23;20017;-65
2022/06/02 08:38:15;;;;;;;4.57;3.10;;;;;;;;;;6205466;23;20052;-65
2022/06/02 08:41:28;;;;;;;3.70;2.95;;;;;;;;;;6211101;23;20056;-65
2022/06/02 08:43:56;;;;;;;5.70;4.10;;;;;;;;;;6213408;23;20016;-65
2022/06/02 08:46:25;;;;;;;5.90;3.80;;;;;;;;;;6208725;23;20020;-66
2022/06/02 08:49:07;;;;;;;5.88;4.10;;;;;;;;;;6213311;23;20021;-66
2022/06/02 08:51:47;;;;;;;5.80;3.70;;;;;;;;;;6197353;23;20354;-65
2022/06/02 08:54:20;;;;;;;4.75;2.85;;;;;;;;;;6212345;23;20461;-66
2022/06/02 08:57:06;;;;;;;3.10;2.25;;;;;;;;;;6204853;23;20031;-66
2022/06/02 08:59:39;;;;;;;4.10;2.20;;;;;;;;;;6212499;23;20391;-66
2022/06/02 09:02:24;;;;;;;4.40;1.95;;;;;;;;;;6204722;23;20066;-66
2022/06/02 09:05:14;;;;;;;4.90;2.00;;;;;;;;;;6211671;23;20016;-65
2022/06/02 09:07:53;;;;;;;3.05;2.00;;;;;;;;;;6204769;23;20493;-66
2022/06/02 09:10:39;;;;;;;6.70;2.20;;;;;;;;;;6212924;23;20021;-66
2022/06/02 09:13:15;;;;;;;4.07;2.25;;;;;;;;;;6205902;23;20063;-65
2022/06/02 09:15:53;;;;;;;4.25;2.28;;;;;;;;;;6204076;23;20107;-65
2022/06/02 09:18:43;;;;;;;3.90;2.15;;;;;;;;;;6202718;22;20030;-65
2022/06/02 09:21:32;;;;;;;5.68;2.58;;;;;;;;;;6182517;23;20040;-65
2022/06/02 09:24:01;;;;;;;3.90;2.50;;;;;;;;;;6204045;23;20558;-66
2022/06/02 09:26:54;;;;;;;3.00;2.30;;;;;;;;;;6212879;23;20052;-66
2022/06/02 09:29:22;;;;;;;4.88;2.40;;;;;;;;;;6198746;22;20414;-65
2022/06/02 09:31:51;;;;;;;4.13;2.40;;;;;;;;;;6206980;23;20055;-65
2022/06/02 09:34:37;;;;;;;4.00;2.50;;;;;;;;;;6207894;23;20399;-66
2022/06/02 09:37:07;;;;;;;3.47;1.85;;;;;;;;;;6212491;23;20406;-66
2022/06/02 09:39:48;;;;;;;3.25;2.25;;;;;;;;;;6212874;23;20503;-66
2022/06/02 09:42:34;;;;;;;4.68;2.17;;;;;;;;;;6202421;23;20341;-66
2022/06/02 09:45:19;;;;;;;3.90;1.83;;;;;;;;;;6206459;23;20058;-65
2022/06/02 09:47:48;;;;;;;3.05;1.45;;;;;;;;;;6208644;23;20017;-65
2022/06/02 09:50:14;;;;;;;2.20;1.42;;;;;;;;;;6212568;23;20028;-66
2022/06/02 09:52:52;;;;;;;2.80;1.98;;;;;;;;;;6205646;23;20378;-65
2022/06/02 09:55:19;;;;;;;5.18;2.55;;;;;;;;;;6211528;23;20059;-65
2022/06/02 09:57:57;;;;;;;1.98;1.77;;;;;;;;;;6193251;23;20466;-65
2022/06/02 10:00:30;;;;;;;2.60;1.50;;;;;;;;;;6211795;23;20017;-65
2022/06/02 10:02:59;;;;;;;3.20;1.50;;;;;;;;;;6205203;23;20112;-65
2022/06/02 10:05:39;;;;;;;1.92;1.60;;;;;;;;;;6212344;23;20520;-66
2022/06/02 10:08:14;;;;;;;3.40;1.92;;;;;;;;;;6206238;23;20048;-65
2022/06/02 10:10:47;;;;;;;3.90;1.83;;;;;;;;;;6206556;23;20020;-65
2022/06/02 10:13:37;;;;;;;5.93;1.80;;;;;;;;;;6175948;23;20107;-65
2022/06/02 10:16:09;;;;;;;2.80;2.15;;;;;;;;;;6213019;23;20402;-65
2022/06/02 10:18:38;;;;;;;4.70;1.73;;;;;;;;;;6212237;23;20100;-66
2022/06/02 10:21:23;;;;;;;4.00;1.88;;;;;;;;;;6205911;23;20100;-66
2022/06/02 10:24:10;;;;;;;3.97;2.10;;;;;;;;;;6208009;23;20324;-65
2022/06/02 10:26:42;;;;;;;2.65;1.70;;;;;;;;;;6199618;23;20410;-65
2022/06/02 10:29:28;;;;;;;3.33;2.00;;;;;;;;;;6211529;23;20111;-66
2022/06/02 10:32:15;;;;;;;3.03;1.52;;;;;;;;;;6205048;23;20457;-65
2022/06/02 10:34:41;;;;;;;2.17;1.30;;;;;;;;;;6212037;23;20028;-65
2022/06/02 10:37:08;;;;;;;3.28;1.58;;;;;;;;;;6200297;23;21004;-66
2022/06/02 10:39:52;;;;;;;1.88;1.60;;;;;;;;;;6203444;23;20056;-65
2022/06/02 10:42:29;;;;;;;2.35;1.60;;;;;;;;;;6204122;22;20544;-65
2022/06/02 10:45:08;;;;;;;4.95;1.50;;;;;;;;;;6212114;23;20383;-66
2022/06/02 10:47:53;;;;;;;2.75;1.60;;;;;;;;;;6205218;23;20064;-66
2022/06/02 10:50:23;;;;;;;2.35;1.60;;;;;;;;;;6211803;23;20056;-65
2022/06/02 10:52:49;;;;;;;1.80;1.33;;;;;;;;;;6197705;23;20492;-65
2022/06/02 10:55:27;;;;;;;2.63;1.35;;;;;;;;;;6209426;23;20063;-65
2022/06/02 10:58:06;;;;;;;3.60;1.48;;;;;;;;;;6204714;23;20488;-65
2022/06/02 11:00:58;;;;;;;1.83;1.50;;;;;;;;;;6186205;23;20095;-66
2022/06/02 11:03:25;;;;;;;3.58;1.75;;;;;;;;;;6168947;23;20055;-66
2022/06/02 11:06:30;;;;;;;4.00;2.03;;;;;;;;;;6205706;23;20450;-66
2022/06/02 11:09:07;;;;;;;3.22;1.33;;;;;;;;;;6110814;23;20029;-65
2022/06/02 11:11:53;;;;;;;2.08;1.42;;;;;;;;;;6120826;23;20030;-66
2022/06/02 11:14:32;;;;;;;3.00;1.80;;;;;;;;;;6112600;23;20049;-65
2022/06/02 11:16:58;;;;;;;1.60;1.40;;;;;;;;;;6120373;23;20046;-66
2022/06/02 11:19:50;;;;;;;2.60;1.38;;;;;;;;;;6113889;23;20125;-66
2022/06/02 11:22:35;;;;;;;4.15;2.13;;;;;;;;;;6113965;23;20018;-66
2022/06/02 11:25:31;;;;;;;3.55;2.00;;;;;;;;;;6115345;23;20061;-65
2022/06/02 11:28:16;;;;;;;2.58;1.73;;;;;;;;;;6119520;23;20109;-65
2022/06/02 11:30:43;;;;;;;2.95;1.50;;;;;;;;;;6113974;23;20051;-65
2022/06/02 11:33:28;;;;;;;2.95;1.45;;;;;;;;;;6113054;23;20022;-65
2022/06/02 11:36:05;;;;;;;3.42;1.50;;;;;;;;;;6113933;23;20109;-65
2022/06/02 11:38:50;;;;;;;2.00;1.17;;;;;;;;;;6113787;23;20101;-67
2022/06/02 11:41:22;;;;;;;4.13;1.58;;;;;;;;;;6211719;23;20055;-66
2022/06/02 11:44:10;;;;;;;3.88;1.60;;;;;;;;;;6202919;23;20100;-66
2022/06/02 11:46:40;;;;;;;2.78;1.42;;;;;;;;;;6206357;23;20746;-65
2022/06/02 11:49:09;;;;;;;2.28;1.60;;;;;;;;;;6198195;23;20056;-65
2022/06/02 11:51:54;;;;;;;2.60;1.88;;;;;;;;;;6211263;23;20095;-65
2022/06/02 11:54:43;;;;;;;2.65;1.70;;;;;;;;;;6203753;23;20021;-66
2022/06/02 11:57:20;;;;;;;2.13;1.30;;;;;;;;;;6211567;23;20051;-66
2022/06/02 11:59:59;;;;;;;2.03;1.20;;;;;;;;;;6203104;23;20707;-65
2022/06/02 12:02:53;;;;;;;1.55;1.30;;;;;;;;;;6200049;23;20029;-65
2022/06/02 12:05:39;;;;;;;2.08;1.27;;;;;;;;;;6203442;22;20104;-66
2022/06/02 12:08:25;;;;;;;2.10;1.20;;;;;;;;;;6212246;23;20470;-65
2022/06/02 12:11:10;;;;;;;2.38;1.50;;;;;;;;;;6202266;22;20519;-65
2022/06/02 12:14:03;;;;;;;1.73;1.48;;;;;;;;;;6211451;23;20027;-65
2022/06/02 12:16:40;;;;;;;2.00;1.80;;;;;;;;;;6193748;23;20028;-66
2022/06/02 12:19:14;;;;;;;3.55;1.70;;;;;;;;;;6210205;23;20472;-67
2022/06/02 12:21:51;;;;;;;4.25;1.55;;;;;;;;;;6204206;23;20052;-66
2022/06/02 12:24:27;;;;;;;2.83;1.90;;;;;;;;;;6211281;23;20494;-66
2022/06/02 12:26:53;;;;;;;6.03;2.30;;;;;;;;;;6204080;23;20024;-65
2022/06/02 12:29:41;;;;;;;2.10;1.60;;;;;;;;;;6204895;23;20180;-66
2022/06/02 12:32:34;;;;;;;3.72;1.65;;;;;;;;;;6199999;23;20354;-66
2022/06/02 12:35:09;;;;;;;3.17;1.70;;;;;;;;;;6211802;23;20059;-66
2022/06/02 12:37:40;;;;;;;4.43;1.90;;;;;;;;;;6204767;23;20086;-66
2022/06/02 12:40:06;;;;;;;2.60;1.67;;;;;;;;;;6210769;23;20021;-66
2022/06/02 12:42:51;;;;;;;2.58;1.80;;;;;;;;;;6205542;23;20043;-66
2022/06/02 12:45:36;;;;;;;2.60;1.88;;;;;;;;;;6202021;23;20764;-66
2022/06/02 12:48:22;;;;;;;3.15;1.60;;;;;;;;;;6211769;23;20051;-66
2022/06/02 12:51:07;;;;;;;2.72;1.88;;;;;;;;;;6207397;23;20108;-67
2022/06/02 12:53:37;;;;;;;2.33;1.40;;;;;;;;;;6211372;23;20103;-66
2022/06/02 12:56:16;;;;;;;5.22;2.17;;;;;;;;;;6198488;23;20474;-65
2022/06/02 12:58:54;;;;;;;2.47;1.50;;;;;;;;;;6205986;23;20087;-66
2022/06/02 13:01:24;;;;;;;4.85;2.22;;;;;;;;;;6204745;22;20023;-66
2022/06/02 13:04:09;;;;;;;3.80;2.10;;;;;;;;;;6213146;23;20385;-66
2022/06/02 13:06:56;;;;;;;2.50;1.73;;;;;;;;;;6205009;23;20031;-66
2022/06/02 13:09:25;;;;;;;4.45;1.98;;;;;;;;;;6147917;23;20091;-66
2022/06/02 13:12:03;;;;;;;3.08;1.73;;;;;;;;;;6199844;23;20076;-66
2022/06/02 13:14:40;;;;;;;2.45;1.63;;;;;;;;;;6186047;23;20052;-66
2022/06/02 13:17:07;;;;;;;;;;;;;;;;;;6205006;23;20076;-66
2022/06/02 13:19:33;;;;;;;3.63;2.08;;;;;;;;;;6213224;23;19916;-67
2022/06/02 13:22:18;;;;;;;4.60;2.20;;;;;;;;;;6205763;23;20067;-66
2022/06/02 13:24:44;;;;;;;4.60;2.15;;;;;;;;;;6206822;23;20020;-67
2022/06/02 13:27:14;;;;;;;3.78;1.90;;;;;;;;;;6206557;23;20017;-66
2022/06/02 13:29:59;;;;;;;4.15;2.20;;;;;;;;;;6203341;23;20104;-66
2022/06/02 13:32:25;;;;;;;2.90;1.90;;;;;;;;;;6212027;23;20032;-67
2022/06/02 13:35:10;;;;;;;4.00;1.90;;;;;;;;;;6204330;23;20028;-66
2022/06/02 13:37:43;;;;;;;2.72;1.60;;;;;;;;;;6206042;23;20104;-67
2022/06/02 13:40:18;;;;;;;4.43;2.30;;;;;;;;;;6197419;23;20532;-66
2022/06/02 13:43:13;;;;;;;4.90;2.67;;;;;;;;;;6211431;23;20667;-67
2022/06/02 13:45:58;;;;;;;2.42;1.77;;;;;;;;;;6204244;23;20473;-66
2022/06/02 13:48:25;;;;;;;2.30;2.00;;;;;;;;;;6211854;23;20461;-66
2022/06/02 13:50:51;;;;;;;4.80;2.60;;;;;;;;;;6203108;23;20103;-66
2022/06/02 13:53:30;;;;;;;2.83;2.40;;;;;;;;;;6203305;23;20056;-66
2022/06/02 13:59:10;;;;;;;4.32;2.35;;;;;;;;;;6212696;23;20024;-67
2022/06/02 14:01:42;;;;;;;2.83;1.83;;;;;;;;;;6205576;23;20552;-66
2022/06/02 14:04:34;;;;;;;2.53;1.92;;;;;;;;;;6212351;23;20059;-66
2022/06/02 14:07:03;;;;;;;3.72;1.77;;;;;;;;;;6195590;22;20048;-66
2022/06/02 14:09:39;;;;;;;1.98;1.20;;;;;;;;;;6208277;23;20110;-67
2022/06/02 14:12:32;;;;;;;2.63;1.50;;;;;;;;;;6212718;23;20506;-67
2022/06/02 14:15:16;;;;;;;2.50;1.63;;;;;;;;;;6177391;23;20051;-67
2022/06/02 14:18:01;;;;;;;2.15;1.50;;;;;;;;;;6212046;23;20153;-67
2022/06/02 14:20:42;;;;;;;7.15;1.88;;;;;;;;;;6205784;23;20020;-66
2022/06/02 14:23:27;;;;;;;3.78;1.98;;;;;;;;;;6206465;23;20021;-67
2022/06/02 14:26:06;;;;;;;2.97;1.58;;;;;;;;;;6208387;23;20092;-66
2022/06/02 14:28:44;;;;;;;3.38;1.55;;;;;;;;;;6211832;23;20027;-66
2022/06/02 14:31:34;;;;;;;3.17;1.80;;;;;;;;;;6204710;22;20099;-67
2022/06/02 14:34:01;;;;;;;2.72;1.70;;;;;;;;;;6180704;23;20024;-67
2022/06/02 14:36:40;;;;;;;2.42;1.80;;;;;;;;;;6197123;23;20107;-67
2022/06/02 14:39:14;;;;;;;2.33;1.77;;;;;;;;;;6211922;23;20334;-67
2022/06/02 14:41:56;;;;;;;2.05;1.60;;;;;;;;;;6203781;23;20472;-67
2022/06/02 14:44:28;;;;;;;3.80;1.75;;;;;;;;;;6211365;23;20056;-66
2022/06/02 14:47:04;;;;;;;3.55;2.08;;;;;;;;;;6202854;23;20561;-66
2022/06/02 14:49:31;;;;;;;1.95;1.60;;;;;;;;;;6202582;23;20100;-66
2022/06/02 14:51:58;;;;;;;2.75;1.85;;;;;;;;;;6204132;23;20072;-66
2022/06/02 14:54:30;;;;;;;2.50;1.35;;;;;;;;;;6211872;23;20055;-67
2022/06/02 14:57:03;;;;;;;3.33;1.65;;;;;;;;;;6204204;23;20059;-67
2022/06/02 14:59:36;;;;;;;4.38;1.90;;;;;;;;;;6210569;23;20382;-67
2022/06/02 15:02:15;;;;;;;2.97;1.60;;;;;;;;;;6206685;23;20353;-66
2022/06/02 15:04:50;;;;;;;2.13;1.45;;;;;;;;;;6198337;23;20051;-66
2022/06/02 15:07:24;;;;;;;3.20;1.70;;;;;;;;;;6211626;23;20503;-67
2022/06/02 15:09:56;;;;;;;2.80;1.67;;;;;;;;;;6203885;23;20031;-67
2022/06/02 15:12:41;;;;;;;2.70;1.50;;;;;;;;;;6212210;23;20031;-67
2022/06/02 15:15:23;;;;;;;3.58;1.67;;;;;;;;;;6203071;23;20525;-67
2022/06/02 15:18:08;;;;;;;2.35;1.60;;;;;;;;;;6212188;23;20131;-66
2022/06/02 15:20:38;;;;;;;2.50;1.90;;;;;;;;;;6204946;22;20028;-67
2022/06/02 15:23:40;;;;;;;2.45;1.67;;;;;;;;;;6211246;23;20021;-67
2022/06/02 15:26:10;;;;;;;2.67;1.70;;;;;;;;;;6199671;23;20377;-67
2022/06/02 15:28:56;;;;;;;2.30;1.85;;;;;;;;;;6204978;23;20036;-67
2022/06/02 15:31:32;;;;;;;2.03;1.80;;;;;;;;;;6202676;23;20016;-66
2022/06/02 15:34:17;;;;;;;2.85;2.00;;;;;;;;;;6211135;23;20020;-66
2022/06/02 15:37:02;;;;;;;3.33;1.90;;;;;;;;;;6202464;23;20056;-66
2022/06/02 15:39:44;;;;;;;4.55;2.10;;;;;;;;;;6208293;23;20484;-66